• Join FlightAware (Why Join?)
  • Login
  • US Flag 
04:18AM EDT


 

Airport Tracker/Info


-or-


 

Live Flight TrackerFlight Track Log ✈ N282JG ✈ 30-Jan-2014 ✈ KHQZ - KOMA

Flight Track Log - Related Links

Times and Time Zones

All times are in EST time to prevent confusion due to time zone crossing. See the N282JG flight status page for this flight to view local times or setup timezone preferences in your user account.

Time Position Orientation Groundspeed Altitude Reporting Facility
EST Latitude Longitude Course Direction KTS MPH feet Rate Location/Type
05:10PM 32.7333 -96.5333 145° Southeast 128 147 1,000  Level Dallas / Fort Worth TRACON
05:11PM 32.7128 -96.5161 145° Southeast 160 184 2,400 1,920 Climbing Fort Worth Center
05:12PM 32.7525 -96.4703 44° Northeast 222 255 4,500 1,860 Climbing Fort Worth Center
05:13PM 32.8017 -96.4925 339° North 192 221 6,300 1,920 Climbing Fort Worth Center
05:14PM 32.8542 -96.5208 336° Northwest 190 219 8,500 1,380 Climbing Fort Worth Center
05:15PM 32.9039 -96.5603 326° Northwest 217 250 9,200 720 Climbing Fort Worth Center
05:16PM 32.9647 -96.6036 329° Northwest 250 288 10,000 900 Climbing Fort Worth Center
05:17PM 33.0364 -96.6564 328° Northwest 274 315 11,100 1,200 Climbing Fort Worth Center
05:18PM 33.0944 -96.6986 329° Northwest 247 284 12,600 1,320 Climbing Fort Worth Center
05:19PM 33.1492 -96.7389 328° Northwest 232 267 13,900 1,200 Climbing Fort Worth Center
05:20PM 33.2058 -96.7806 328° Northwest 222 255 15,200 1,140 Climbing Fort Worth Center
05:21PM 33.2581 -96.8192 328° Northwest 220 253 16,300 1,440 Climbing Fort Worth Center
05:22PM 33.3108 -96.8586 328° Northwest 206 237 18,200 1,500 Climbing Fort Worth Center
05:23PM 33.3589 -96.8939 328° Northwest 201 231 19,500 1,140 Climbing Fort Worth Center
05:24PM 33.4069 -96.9292 329° Northwest 203 234 20,600 1,200 Climbing Fort Worth Center
05:25PM 33.4636 -96.9619 334° Northwest 212 244 22,000 1,200 Climbing Fort Worth Center
05:26PM 33.5303 -96.9522 North 237 273 23,200 1,080 Climbing Fort Worth Center
05:27PM 33.5983 -96.9469 North 239 275 24,300 840 Climbing Fort Worth Center
05:28PM 33.6656 -96.9386 North 242 278 25,000 300 Climbing Fort Worth Center
05:29PM 33.7439 -96.9308 North 280 322 25,000 60 Level Fort Worth Center
05:30PM 33.8267 -96.9225 North 297 342 25,200 540 Climbing Fort Worth Center
05:31PM 33.9256 -96.9131 North 299 344 26,200 780 Climbing Fort Worth Center
05:32PM 34.0058 -96.9033 North 291 335 26,900 660 Climbing Fort Worth Center
05:33PM 34.0850 -96.8953 North 287 330 27,600 720 Climbing Fort Worth Center
05:34PM 34.1692 -96.8869 North 282 325 28,400 720 Climbing Fort Worth Center
05:35PM 34.2472 -96.8761 North 282 325 29,100 660 Climbing Fort Worth Center
05:37PM 34.3253 -96.8683 North 281 323 29,800 720 Climbing Fort Worth Center
05:38PM 34.4017 -96.8606 North 275 316 30,600 660 Climbing Fort Worth Center
05:39PM 34.4767 -96.8533 North 270 311 31,200 720 Climbing Fort Worth Center
05:40PM 34.5656 -96.8425 North 265 305 32,100 780 Climbing Fort Worth Center
05:41PM 34.6364 -96.8372 North 256 295 32,900 720 Climbing Fort Worth Center
05:42PM 34.7075 -96.8278 North 255 293 33,600 600 Climbing Fort Worth Center
05:43PM 34.7772 -96.8206 North 251 289 34,200 600 Climbing Fort Worth Center
05:44PM 34.8483 -96.8133 North 255 293 34,900 360 Climbing Fort Worth Center
05:45PM 34.9208 -96.8078 North 263 303 35,000  Climbing Fort Worth Center
05:46PM 35.0142 -96.7964 North 278 320 35,000  Level Fort Worth Center
05:47PM 35.0961 -96.7878 North 289 333 35,000  Level Fort Worth Center
05:48PM 35.1794 -96.7781 North 298 343 35,000  Level Fort Worth Center
05:49PM 35.2661 -96.7697 North 309 356 35,000  Level Fort Worth Center
05:50PM 35.3522 -96.7597 North 311 358 35,000  Level Fort Worth Center
05:51PM 35.4567 -96.7492 North 315 362 35,000  Level Fort Worth Center
05:52PM 35.5436 -96.7408 North 314 361 35,000  Level Fort Worth Center
05:53PM 35.6325 -96.7300 North 321 369 35,000  Level Fort Worth Center
05:54PM 35.7203 -96.7208 North 319 367 35,000  Level Fort Worth Center
05:55PM 35.8097 -96.7119 North 323 372 35,000  Level Fort Worth Center
05:56PM 35.9156 -96.7003 North 320 368 35,000  Level Fort Worth Center
05:57PM 36.0039 -96.6906 North 319 367 35,000  Level Fort Worth Center
05:58PM 36.0914 -96.6814 North 316 364 35,000  Level Fort Worth Center
05:59PM 36.1806 -96.6725 North 319 367 35,000  Level Fort Worth Center
06:00PM 36.2719 -96.6614 North 325 374 35,000  Level Fort Worth Center
06:01PM 36.3603 -96.6503 North 321 369 35,000  Level Fort Worth Center
06:02PM 36.4683 -96.6394 North 325 374 35,000  Level Fort Worth Center
06:03PM 36.5583 -96.6289 North 324 373 35,000  Level Fort Worth Center
06:04PM 36.6467 -96.6200 North 319 367 35,000  Level Fort Worth Center
06:06PM 36.7356 -96.6097 North 319 367 35,000  Level Fort Worth Center
06:07PM 36.8436 -96.5967 North 319 367 35,000  Level Kansas City Center
06:08PM 36.9342 -96.5864 North 323 372 35,000  Level Kansas City Center
06:09PM 37.0228 -96.5767 North 321 369 35,000  Level Kansas City Center
06:10PM 37.1086 -96.5669 North 314 361 35,000  Level Kansas City Center
06:11PM 37.2078 -96.5564 North 311 358 35,000 -120 Level Kansas City Center
06:12PM 37.2936 -96.5481 North 311 358 34,800 -360 Descending Kansas City Center
06:13PM 37.3828 -96.5378 North 316 364 34,300 -420 Descending Kansas City Center
06:14PM 37.4758 -96.5281 North 328 377 34,000 -180 Descending Kansas City Center
06:15PM 37.5681 -96.5167 North 333 383 34,000  Level Kansas City Center
06:16PM 37.6589 -96.5056 North 332 382 34,000  Level Kansas City Center
06:17PM 37.7686 -96.4928 North 326 375 34,000  Level Kansas City Center
06:18PM 37.8572 -96.4831 North 321 369 34,000  Level Kansas City Center
06:19PM 37.9447 -96.4739 North 318 366 34,000  Level Kansas City Center
06:20PM 38.0317 -96.4636 North 316 364 34,000  Level Kansas City Center
06:21PM 38.1186 -96.4544 North 314 361 34,000  Level Kansas City Center
06:22PM 38.2100 -96.4439 North 313 360 34,000  Level Kansas City Center
06:23PM 38.3067 -96.4336 North 313 360 34,000  Level Kansas City Center
06:24PM 38.3897 -96.4219 North 312 359 34,000  Level Kansas City Center
06:25PM 38.4872 -96.4122 North 314 361 34,000  Level Kansas City Center
06:26PM 38.5700 -96.4014 North 312 359 34,000  Level Kansas City Center
06:27PM 38.6669 -96.3889 North 312 359 34,000  Level Kansas City Center
06:28PM 38.7506 -96.3800 North 313 360 34,000  Level Kansas City Center
06:29PM 38.8475 -96.3681 North 313 360 34,000  Level Kansas City Center
06:30PM 38.9311 -96.3572 North 313 360 34,000  Level Kansas City Center
06:31PM 39.0158 -96.3483 North 316 364 34,000  Level Kansas City Center
06:32PM 39.1131 -96.3372 North 313 360 34,000  Level Kansas City Center
06:34PM 39.1981 -96.3269 North 317 365 34,000 -540 Level Kansas City Center
06:35PM 39.2817 -96.3164 North 319 367 32,900 -1,740 Descending Kansas City Center
06:36PM 39.4011 -96.3019 North 353 406 30,500 -2,100 Descending Kansas City Center
06:37PM 39.5053 -96.2892 North 371 427 28,500 -1,860 Descending Kansas City Center
06:38PM 39.6108 -96.2769 North 371 427 26,700 -1,680 Descending Kansas City Center
06:39PM 39.7108 -96.2653 North 374 430 25,200 -1,320 Descending Kansas City Center
06:40PM 39.8156 -96.2528 North 370 426 24,100 -600 Descending Kansas City Center
06:41PM 39.9122 -96.2408 North 352 405 24,000 -60 Descending Kansas City Center
06:42PM 40.0261 -96.2272 North 343 395 24,000  Level Kansas City Center
06:43PM 40.1203 -96.2144 North 346 398 24,000 -780 Level Kansas City Center
06:44PM 40.2211 -96.2031 North 344 396 22,400 -1,980 Descending Minneapolis Center
06:45PM 40.3197 -96.1892 North 353 406 19,800 -2,880 Descending Minneapolis Center
06:45PM 40.3339 -96.1686 48° Northeast 352 405 19,300 -2,940 Descending Minneapolis Center
06:46PM 40.4294 -96.1725 358° North 338 389 16,800 -2,520 Descending Minneapolis Center
06:46PM 40.4378 -96.1572 54° Northeast 323 372 16,500 -2,400 Descending Minneapolis Center
06:47PM 40.5228 -96.1450 North 306 352 14,100 -2,340 Descending Minneapolis Center
06:48PM 40.5997 -96.1364 North 303 349 12,000 -2,280 Descending Minneapolis Center
06:49PM 40.6806 -96.1275 North 274 315 9,800 -2,040 Descending Minneapolis Center
06:49PM 40.6775 -96.1358 244° Southwest 296 341 9,900 -1,500 Climbing Minneapolis Center
06:50PM 40.7433 -96.0900 28° Northeast 282 325 8,200 -1,680 Descending Minneapolis Center
06:51PM 40.8000 -96.0342 37° Northeast 253 291 6,800 -1,380 Descending Minneapolis Center
06:51PM 40.8031 -96.0400 305° West 269 310 6,800 -1,260 Level Minneapolis Center
06:52PM 40.8497 -95.9928 37° Northeast 234 269 5,700 -1,260 Descending Minneapolis Center
06:52PM 40.8686 -95.9847 18° North 252 290 5,500 -660 Descending Minneapolis Center
06:53PM 40.9272 -95.9317 34° Northeast 204 235 4,700 -720 Descending Minneapolis Center
06:54PM 40.9731 -95.8958 31° Northeast 201 231 4,000 -420 Descending Minneapolis Center
06:55PM 41.0108 -95.8667 30° Northeast 193 222 4,000  Level Minneapolis Center
06:55PM 41.0108 -95.8683 270° West 203 234 4,000  Level Minneapolis Center
06:56PM 41.0572 -95.8306 32° Northeast 198 228 4,000 60 Level Minneapolis Center
06:56PM 41.0667 -95.8269 16° North 199 229 4,100 -720 Climbing Minneapolis Center
06:57PM 41.1256 -95.8283 359° North 220 253 3,300 -600 Descending Minneapolis Center
06:58PM 41.1825 -95.8094 14° North 213 245 2,900 -180 Descending Minneapolis Center
06:59PM 41.2167 -95.8150 353° North 169 194 3,000 -120 Climbing Minneapolis Center
06:59PM 41.2281 -95.8192 345° North 187 215 2,800 -900 Descending Minneapolis Center
07:00PM 41.2522 -95.8442 322° Northwest 137 158 2,100 -900 Descending Minneapolis Center
07:00PM 41.2606 -95.8503 331° Northwest 162 186 1,900 -720 Descending Minneapolis Center
07:01PM 41.2769 -95.8717 316° Northwest 107 123 1,400 -600 Descending Minneapolis Center
07:02PM 41.2861 -95.8756 342° North 139 160 1,300 -300 Descending Minneapolis Center
07:04PM 41.3000 -95.8833 323° Northwest  Level FlightAware Approximate